Time;durP1;ratioP1;P1;durP2;ratioP2;P2;SDS_P1;SDS_P2;PMS_P1;PMS_P2;Temp;Humidity;BMP_temperature;BMP_pressure;BME280_temperature;BME280_humidity;BME280_pressure;Samples;Min_cycle;Max_cycle;Signal;HPM_P1;HPM_P2
2020/12/02 00:02:21;;;;;;;1.73;1.60;;;19.20;53.30;;;;;;5003876;28;20696;-60
2020/12/02 00:04:49;;;;;;;1.70;1.60;;;19.20;53.40;;;;;;4980472;28;20273;-62
2020/12/02 00:07:16;;;;;;;1.97;1.87;;;19.10;53.40;;;;;;5007171;28;20678;-62
2020/12/02 00:09:43;;;;;;;2.03;1.80;;;19.10;53.60;;;;;;4996135;28;20313;-63
2020/12/02 00:12:09;;;;;;;1.80;1.70;;;19.10;53.70;;;;;;5005757;28;20235;-62
2020/12/02 00:14:35;;;;;;;2.30;1.93;;;19.00;53.60;;;;;;4996771;28;20224;-62
2020/12/02 00:17:02;;;;;;;2.07;1.97;;;19.00;53.70;;;;;;5001756;28;20281;-62
2020/12/02 00:19:28;;;;;;;1.77;1.63;;;19.00;53.70;;;;;;4997484;28;20234;-62
2020/12/02 00:22:21;;;;;;;2.03;1.83;;;19.00;53.90;;;;;;5005961;28;20223;-62
2020/12/02 00:24:49;;;;;;;1.63;1.53;;;19.00;53.90;;;;;;4989895;28;20235;-61
2020/12/02 00:27:22;;;;;;;2.00;1.90;;;18.90;54.00;;;;;;5005179;28;20227;-61
2020/12/02 00:29:49;;;;;;;3.57;2.23;;;18.90;54.00;;;;;;4997985;28;20234;-63
2020/12/02 00:32:27;;;;;;;1.83;1.73;;;18.90;54.10;;;;;;5005203;28;20219;-62
2020/12/02 00:34:53;;;;;;;1.90;1.80;;;18.90;54.00;;;;;;4993778;28;20219;-63
2020/12/02 00:37:20;;;;;;;2.03;1.83;;;18.80;54.10;;;;;;5006102;28;20714;-60
2020/12/02 00:39:47;;;;;;;2.20;2.00;;;18.80;54.20;;;;;;5004587;28;20242;-63
2020/12/02 00:42:13;;;;;;;2.50;2.30;;;18.80;54.20;;;;;;4997111;28;20230;-61
2020/12/02 00:44:39;;;;;;;3.23;1.80;;;18.80;54.30;;;;;;5004811;28;20247;-62
2020/12/02 00:47:10;;;;;;;2.27;1.90;;;18.70;54.20;;;;;;4996671;28;20227;-63
2020/12/02 00:49:38;;;;;;;2.50;1.63;;;18.80;54.40;;;;;;5022870;28;21596;-62
2020/12/02 00:52:06;;;;;;;2.07;1.87;;;18.70;54.40;;;;;;5015501;28;20637;-62
2020/12/02 00:54:33;;;;;;;2.20;2.00;;;18.70;54.40;;;;;;5022605;28;20238;-62
2020/12/02 00:57:00;;;;;;;2.63;2.20;;;18.70;54.40;;;;;;5013003;28;20227;-62
2020/12/02 00:59:29;;;;;;;2.03;1.93;;;18.60;54.40;;;;;;5004704;28;20223;-62
2020/12/02 01:02:27;;;;;;;2.20;2.00;;;18.60;54.50;;;;;;4995120;28;21149;-62
2020/12/02 01:04:53;;;;;;;1.90;1.80;;;18.60;54.50;;;;;;5005478;28;20282;-63
2020/12/02 01:07:20;;;;;;;2.23;2.10;;;18.60;54.60;;;;;;4994420;28;20261;-62
2020/12/02 01:09:47;;;;;;;2.53;2.33;;;18.60;54.60;;;;;;5006007;28;20305;-62
2020/12/02 01:12:16;;;;;;;3.90;2.53;;;18.60;54.70;;;;;;4996356;28;20227;-62
2020/12/02 01:14:43;;;;;;;2.53;1.80;;;18.60;54.70;;;;;;5005166;28;20223;-62
2020/12/02 01:17:11;;;;;;;2.30;2.10;;;18.60;54.80;;;;;;4995891;28;20250;-62
2020/12/02 01:19:38;;;;;;;2.50;2.30;;;18.50;54.80;;;;;;5003001;28;20228;-62
2020/12/02 01:22:22;;;;;;;2.23;2.03;;;18.50;54.80;;;;;;5016332;28;20215;-62
2020/12/02 01:25:07;;;;;;;2.27;2.07;;;18.40;54.80;;;;;;5021265;28;21687;-62
2020/12/02 01:27:37;;;;;;;2.23;2.13;;;18.40;54.90;;;;;;5016036;28;20795;-61
2020/12/02 01:30:08;;;;;;;2.83;2.47;;;18.50;54.90;;;;;;5022484;28;20219;-62
2020/12/02 01:32:35;;;;;;;2.70;2.50;;;18.40;55.00;;;;;;4996295;28;20662;-62
2020/12/02 01:35:03;;;;;;;2.37;1.93;;;18.40;55.00;;;;;;5007714;28;20463;-62
2020/12/02 01:37:31;;;;;;;2.40;2.20;;;18.40;55.00;;;;;;5000276;28;20224;-62
2020/12/02 01:40:25;;;;;;;2.50;2.30;;;18.40;55.00;;;;;;5006505;28;20691;-61
2020/12/02 01:42:56;;;;;;;2.50;2.30;;;18.40;55.10;;;;;;4998274;28;22683;-61
2020/12/02 01:45:25;;;;;;;2.40;2.20;;;18.40;55.20;;;;;;5007798;28;20799;-63
2020/12/02 01:48:16;;;;;;;2.50;2.30;;;18.30;55.10;;;;;;4998220;28;20277;-62
2020/12/02 01:51:16;;;;;;;2.23;2.00;;;18.30;55.10;;;;;;5006053;28;20373;-62
2020/12/02 01:53:58;;;;;;;2.57;2.17;;;18.30;55.20;;;;;;5014954;28;22196;-62
2020/12/02 01:56:31;;;;;;;2.30;2.10;;;18.30;55.30;;;;;;5025501;28;21003;-62
2020/12/02 01:59:26;;;;;;;2.50;2.30;;;18.30;55.30;;;;;;5001085;28;20231;-62
2020/12/02 02:02:07;;;;;;;2.30;2.10;;;18.20;55.30;;;;;;5008392;28;21440;-61
2020/12/02 02:04:43;;;;;;;2.80;2.27;;;18.20;55.30;;;;;;5017853;28;22272;-62
2020/12/02 02:07:18;;;;;;;2.33;2.13;;;18.20;55.30;;;;;;5024677;28;20897;-62
2020/12/02 02:09:48;;;;;;;2.30;2.13;;;18.20;55.40;;;;;;5019206;28;22299;-62
2020/12/02 02:12:37;;;;;;;2.60;2.33;;;18.20;55.40;;;;;;5026566;28;20802;-62
2020/12/02 02:15:16;;;;;;;2.27;2.07;;;18.20;55.40;;;;;;4990661;28;21041;-61
2020/12/02 02:17:43;;;;;;;2.10;2.00;;;18.10;55.40;;;;;;5007892;28;20220;-62
2020/12/02 02:20:10;;;;;;;2.37;2.17;;;18.20;55.50;;;;;;4998506;28;20599;-62
2020/12/02 02:22:36;;;;;;;2.50;2.30;;;18.20;55.50;;;;;;5005100;28;20235;-62
2020/12/02 02:25:05;;;;;;;2.50;2.30;;;18.10;55.50;;;;;;4996132;28;20224;-62
2020/12/02 02:27:32;;;;;;;2.10;2.00;;;18.10;55.50;;;;;;5018376;28;20289;-62
2020/12/02 02:29:58;;;;;;;2.13;2.00;;;18.10;55.50;;;;;;5013815;28;20231;-62
2020/12/02 02:32:26;;;;;;;2.50;2.30;;;18.10;55.50;;;;;;5007367;28;20223;-62
2020/12/02 02:34:56;;;;;;;2.30;2.10;;;18.10;55.50;;;;;;4999361;28;20251;-62
2020/12/02 02:37:29;;;;;;;2.10;2.00;;;18.10;55.50;;;;;;5007428;28;20573;-62
2020/12/02 02:39:58;;;;;;;2.20;2.10;;;18.10;55.60;;;;;;4998496;28;20643;-62
2020/12/02 02:42:41;;;;;;;3.20;2.07;;;18.10;55.50;;;;;;5005769;28;20703;-62
2020/12/02 02:45:23;;;;;;;2.50;2.30;;;18.10;55.50;;;;;;4997754;28;20216;-61
2020/12/02 02:47:49;;;;;;;2.67;1.83;;;18.10;55.60;;;;;;4987693;28;20290;-62
2020/12/02 02:50:18;;;;;;;2.17;2.00;;;18.10;55.60;;;;;;5000817;28;20281;-62
2020/12/02 02:52:46;;;;;;;2.07;1.97;;;18.00;55.60;;;;;;5004784;28;20687;-62
2020/12/02 02:55:15;;;;;;;2.20;2.00;;;18.00;55.60;;;;;;5006100;28;20227;-62
2020/12/02 02:57:41;;;;;;;2.30;2.13;;;18.00;55.60;;;;;;5015227;28;20815;-62
2020/12/02 03:00:12;;;;;;;2.70;2.20;;;18.00;55.60;;;;;;5026041;28;20227;-61
2020/12/02 03:02:38;;;;;;;2.50;2.30;;;18.00;55.60;;;;;;5016849;28;20284;-61
2020/12/02 03:05:07;;;;;;;2.10;2.00;;;18.00;55.70;;;;;;5023695;28;20261;-61
2020/12/02 03:07:34;;;;;;;2.10;2.00;;;18.00;55.70;;;;;;5018985;28;20223;-62
2020/12/02 03:10:00;;;;;;;2.67;2.37;;;18.00;55.70;;;;;;5026700;28;20254;-62
2020/12/02 03:12:28;;;;;;;2.23;2.10;;;18.00;55.80;;;;;;5015962;28;20238;-62
2020/12/02 03:14:55;;;;;;;2.47;2.10;;;18.00;55.70;;;;;;5024714;28;20231;-63
2020/12/02 03:17:24;;;;;;;2.67;2.47;;;18.00;55.80;;;;;;5016296;28;20234;-62
2020/12/02 03:20:07;;;;;;;2.67;2.47;;;17.90;56.30;;;;;;5027975;28;21037;-61
2020/12/02 03:22:34;;;;;;;2.27;2.07;;;18.00;55.80;;;;;;5013291;28;20226;-61
2020/12/02 03:25:01;;;;;;;2.37;2.17;;;18.00;55.80;;;;;;5021907;28;20227;-61
2020/12/02 03:27:27;;;;;;;2.30;2.10;;;17.90;55.80;;;;;;4998040;28;20215;-62
2020/12/02 03:29:54;;;;;;;2.20;2.00;;;17.90;55.80;;;;;;5004622;28;20226;-61
2020/12/02 03:32:21;;;;;;;2.67;2.47;;;17.90;55.80;;;;;;4997349;28;20231;-61
2020/12/02 03:34:48;;;;;;;1.97;1.87;;;17.90;55.80;;;;;;5006285;28;20235;-62
2020/12/02 03:37:14;;;;;;;1.80;1.70;;;17.90;55.80;;;;;;4999123;28;20633;-62
2020/12/02 03:39:41;;;;;;;1.90;1.80;;;17.90;55.80;;;;;;5001828;28;20227;-62
2020/12/02 03:42:07;;;;;;;2.03;1.93;;;17.90;55.90;;;;;;5004538;28;20227;-62
2020/12/02 03:44:33;;;;;;;2.17;1.97;;;17.90;55.90;;;;;;4997723;28;20630;-62
2020/12/02 03:46:59;;;;;;;2.03;1.93;;;17.90;55.90;;;;;;5004769;28;20257;-61
2020/12/02 03:49:25;;;;;;;2.07;1.97;;;17.90;56.00;;;;;;4998208;28;20223;-61
2020/12/02 03:51:52;;;;;;;2.23;2.03;;;17.90;55.90;;;;;;5004672;28;20234;-62
2020/12/02 03:54:18;;;;;;;2.17;1.97;;;17.90;56.00;;;;;;4997233;28;20237;-62
2020/12/02 03:56:44;;;;;;;2.70;2.50;;;17.90;55.90;;;;;;5003678;28;20227;-62
2020/12/02 03:59:10;;;;;;;2.13;2.03;;;17.90;55.90;;;;;;4994879;28;20235;-62
2020/12/02 04:01:36;;;;;;;2.33;2.13;;;17.80;56.00;;;;;;5005324;28;20244;-62
2020/12/02 04:04:03;;;;;;;2.63;2.20;;;17.80;56.00;;;;;;4980373;28;20228;-62
2020/12/02 04:06:29;;;;;;;2.37;2.17;;;17.80;56.00;;;;;;5003848;28;20913;-60
2020/12/02 04:08:55;;;;;;;2.07;1.90;;;17.80;56.00;;;;;;4998076;28;21541;-61
2020/12/02 04:11:22;;;;;;;2.47;2.27;;;17.80;56.00;;;;;;5006528;28;20231;-61
2020/12/02 04:13:48;;;;;;;2.47;2.23;;;17.80;56.00;;;;;;4998028;28;20235;-62
2020/12/02 04:16:14;;;;;;;2.17;1.97;;;17.90;56.20;;;;;;5004971;28;20696;-61
2020/12/02 04:18:40;;;;;;;2.00;1.90;;;17.80;56.00;;;;;;5003987;28;20240;-62
2020/12/02 04:21:07;;;;;;;2.50;2.30;;;17.80;56.00;;;;;;4998423;28;20681;-62
2020/12/02 04:23:33;;;;;;;2.57;2.03;;;17.80;56.10;;;;;;5003855;28;20668;-61
2020/12/02 04:25:59;;;;;;;2.50;2.30;;;17.80;56.10;;;;;;4995197;28;20298;-63
2020/12/02 04:28:25;;;;;;;2.33;2.13;;;17.70;56.10;;;;;;5005377;28;20231;-62
2020/12/02 04:30:51;;;;;;;2.40;2.20;;;17.80;56.20;;;;;;4996552;28;20895;-62
2020/12/02 04:33:18;;;;;;;2.37;2.17;;;17.80;56.10;;;;;;5003056;28;20219;-61
2020/12/02 04:35:44;;;;;;;2.30;2.10;;;17.80;56.10;;;;;;4997417;28;20224;-62
2020/12/02 04:38:11;;;;;;;1.97;1.87;;;17.80;56.20;;;;;;5003728;28;20231;-62
2020/12/02 04:40:39;;;;;;;2.47;2.10;;;17.80;56.20;;;;;;4995727;28;20254;-61
2020/12/02 04:43:33;;;;;;;2.00;1.90;;;17.80;56.10;;;;;;5005376;28;20270;-61
2020/12/02 04:46:02;;;;;;;1.90;1.80;;;17.80;56.20;;;;;;4994723;28;21767;-63
2020/12/02 04:48:31;;;;;;;2.30;2.10;;;17.70;56.10;;;;;;5003335;28;20235;-62
2020/12/02 04:51:11;;;;;;;2.30;2.10;;;17.70;56.10;;;;;;4993647;28;20228;-62
2020/12/02 04:53:40;;;;;;;2.10;2.00;;;17.80;56.20;;;;;;5004931;28;20632;-62
2020/12/02 04:56:07;;;;;;;1.90;1.80;;;17.70;56.20;;;;;;4996599;28;20687;-62
2020/12/02 04:58:36;;;;;;;2.03;1.93;;;17.70;56.10;;;;;;5004489;28;20227;-63
2020/12/02 05:01:23;;;;;;;2.67;2.47;;;17.70;56.10;;;;;;4995738;28;20231;-62
2020/12/02 05:04:27;;;;;;;2.10;1.90;;;17.70;56.20;;;;;;5004568;28;20231;-61
2020/12/02 05:07:14;;;;;;;2.20;2.00;;;17.70;56.10;;;;;;4961925;28;20269;-62
2020/12/02 05:09:56;;;;;;;2.20;2.00;;;17.70;56.10;;;;;;5024912;28;20691;-62
2020/12/02 05:12:30;;;;;;;1.90;1.70;;;17.70;56.10;;;;;;5018217;28;20215;-61
2020/12/02 05:15:08;;;;;;;2.20;2.00;;;17.70;56.10;;;;;;5028697;28;20241;-62
2020/12/02 05:17:35;;;;;;;2.20;2.10;;;17.70;56.10;;;;;;5003361;28;20222;-62
2020/12/02 05:20:12;;;;;;;2.50;2.20;;;17.70;56.10;;;;;;5017014;28;20220;-63
2020/12/02 05:22:45;;;;;;;2.40;2.20;;;17.70;56.10;;;;;;4999960;28;20218;-63
2020/12/02 05:25:33;;;;;;;2.03;1.90;;;17.70;56.10;;;;;;5008298;28;20245;-62
2020/12/02 05:28:20;;;;;;;2.10;2.00;;;17.70;56.20;;;;;;5000431;28;20234;-62
2020/12/02 05:30:47;;;;;;;2.10;1.90;;;17.70;56.10;;;;;;5007235;28;20656;-62
2020/12/02 05:33:18;;;;;;;2.20;2.00;;;17.70;56.10;;;;;;4997299;28;20267;-62
2020/12/02 05:35:53;;;;;;;2.13;1.93;;;17.70;56.20;;;;;;5008105;28;20513;-63
2020/12/02 05:38:32;;;;;;;2.33;2.13;;;17.70;56.10;;;;;;5013026;28;20229;-62
2020/12/02 05:40:59;;;;;;;3.43;1.83;;;17.70;56.20;;;;;;5023884;28;20797;-62
2020/12/02 05:43:34;;;;;;;2.30;2.10;;;17.70;56.40;;;;;;5016383;28;20903;-62
2020/12/02 05:46:00;;;;;;;4.33;2.40;;;17.70;56.30;;;;;;5024849;28;21702;-62
2020/12/02 05:48:35;;;;;;;2.37;2.17;;;17.60;56.20;;;;;;5014468;28;20628;-61
2020/12/02 05:51:02;;;;;;;7.03;1.90;;;17.70;56.30;;;;;;5008925;28;20223;-62
2020/12/02 05:53:46;;;;;;;1.93;1.80;;;17.70;56.20;;;;;;4981106;28;20254;-62
2020/12/02 05:56:13;;;;;;;2.30;2.10;;;17.70;56.30;;;;;;5006894;28;20281;-62
2020/12/02 05:58:42;;;;;;;2.23;1.90;;;17.70;56.30;;;;;;5000841;28;20228;-61
2020/12/02 06:01:15;;;;;;;2.43;1.90;;;17.70;56.20;;;;;;5008269;28;20235;-61
2020/12/02 06:03:41;;;;;;;2.37;2.13;;;17.70;56.20;;;;;;5019201;28;23829;-62
2020/12/02 06:06:12;;;;;;;2.23;2.07;;;17.70;56.20;;;;;;5024769;28;20234;-62
2020/12/02 06:08:45;;;;;;;2.33;2.13;;;17.70;56.20;;;;;;5018051;28;20226;-62
2020/12/02 06:11:15;;;;;;;2.53;2.10;;;17.70;56.10;;;;;;5025911;28;20223;-63
2020/12/02 06:13:47;;;;;;;3.33;2.10;;;17.60;56.10;;;;;;5020606;28;20269;-60
2020/12/02 06:16:39;;;;;;;2.10;1.90;;;17.60;56.10;;;;;;5026000;28;20223;-62
2020/12/02 06:19:14;;;;;;;3.57;2.40;;;17.60;56.10;;;;;;5006164;28;20331;-62
2020/12/02 06:21:56;;;;;;;2.87;2.00;;;17.60;56.10;;;;;;5016872;28;20234;-62
2020/12/02 06:24:44;;;;;;;2.80;2.10;;;17.70;56.20;;;;;;5013520;28;20832;-61
2020/12/02 06:27:16;;;;;;;2.53;2.00;;;17.70;56.20;;;;;;5022762;28;20284;-62
2020/12/02 06:29:46;;;;;;;2.63;2.43;;;17.60;56.20;;;;;;5018767;28;21648;-60
2020/12/02 06:32:20;;;;;;;3.63;2.50;;;17.60;56.20;;;;;;5028812;28;20320;-61
2020/12/02 06:34:48;;;;;;;2.53;2.23;;;17.60;56.20;;;;;;5015853;28;20702;-61
2020/12/02 06:37:21;;;;;;;4.30;2.30;;;17.60;56.20;;;;;;5026222;28;20683;-61
2020/12/02 06:39:59;;;;;;;2.67;2.23;;;17.60;56.20;;;;;;5018753;28;20690;-60
2020/12/02 06:42:38;;;;;;;2.20;2.00;;;17.60;56.20;;;;;;5025565;28;20248;-62
2020/12/02 06:45:16;;;;;;;2.73;2.30;;;17.60;56.20;;;;;;5013364;28;21087;-61
2020/12/02 06:47:58;;;;;;;3.30;2.30;;;17.60;56.20;;;;;;5023657;28;20786;-61
2020/12/02 06:50:29;;;;;;;2.37;2.13;;;17.60;56.20;;;;;;5010620;28;20230;-61
2020/12/02 06:53:08;;;;;;;2.43;2.07;;;17.60;56.20;;;;;;5023651;28;20309;-61
2020/12/02 06:55:40;;;;;;;4.93;2.70;;;17.60;56.20;;;;;;5015812;28;20227;-61
2020/12/02 06:58:17;;;;;;;2.40;2.13;;;17.60;56.20;;;;;;5021989;28;20229;-61
2020/12/02 07:00:50;;;;;;;3.87;2.80;;;17.60;56.20;;;;;;5016968;28;20214;-62
2020/12/02 07:03:31;;;;;;;4.00;2.37;;;17.60;56.10;;;;;;5018931;28;20679;-61
2020/12/02 07:06:15;;;;;;;3.57;2.47;;;17.60;56.20;;;;;;5012193;28;20223;-62
2020/12/02 07:08:43;;;;;;;3.20;2.40;;;17.60;56.30;;;;;;5017624;28;20887;-61
2020/12/02 07:11:12;;;;;;;3.03;2.37;;;17.60;56.30;;;;;;5015862;28;20223;-55
2020/12/02 07:13:44;;;;;;;4.40;2.53;;;17.60;56.20;;;;;;5014246;28;20214;-55
2020/12/02 07:16:30;;;;;;;3.17;2.70;;;17.60;56.30;;;;;;5027692;28;20215;-59
2020/12/02 07:19:10;;;;;;;3.10;2.50;;;17.60;56.40;;;;;;5002519;28;20231;-58
2020/12/02 07:21:46;;;;;;;2.80;2.50;;;17.60;56.30;;;;;;5018063;28;21717;-61
2020/12/02 07:24:21;;;;;;;4.53;2.80;;;17.60;56.30;;;;;;5019238;28;20241;-61
2020/12/02 07:26:49;;;;;;;3.43;2.67;;;17.60;56.30;;;;;;5021065;28;20612;-57
2020/12/02 07:29:20;;;;;;;4.33;2.47;;;17.60;56.20;;;;;;5015286;28;20239;-59
2020/12/02 07:32:00;;;;;;;54.67;9.47;;;17.60;56.50;;;;;;5000970;28;20249;-65
2020/12/02 07:34:26;;;;;;;49.80;10.10;;;18.20;56.10;;;;;;5017812;28;20700;-66
2020/12/02 07:37:00;;;;;;;51.87;8.57;;;18.80;55.20;;;;;;5024333;28;20594;-68
2020/12/02 07:39:27;;;;;;;31.23;8.03;;;19.50;54.30;;;;;;5014094;28;20230;-69
2020/12/02 07:42:13;;;;;;;44.50;7.90;;;20.00;53.20;;;;;;5023411;28;20223;-68
2020/12/02 07:44:48;;;;;;;24.73;7.37;;;20.30;52.60;;;;;;5016093;28;20227;-67
2020/12/02 07:47:16;;;;;;;24.03;6.10;;;20.70;51.90;;;;;;5023332;28;20226;-66
2020/12/02 07:49:59;;;;;;;27.40;6.93;;;21.10;51.50;;;;;;5012680;28;20230;-68
2020/12/02 07:52:38;;;;;;;18.77;5.60;;;21.40;50.80;;;;;;5022148;28;20234;-66
2020/12/02 07:55:06;;;;;;;16.20;5.97;;;21.50;50.50;;;;;;5013020;28;20883;-59
2020/12/02 07:57:34;;;;;;;17.87;5.77;;;21.70;50.50;;;;;;5023867;28;20215;-66
2020/12/02 08:00:30;;;;;;;22.67;6.37;;;21.60;51.70;;;;;;5015384;28;20250;-66
2020/12/02 08:02:57;;;;;;;12.57;5.50;;;21.70;50.70;;;;;;5018371;28;20636;-66
2020/12/02 08:05:45;;;;;;;12.67;5.17;;;22.00;50.00;;;;;;5015462;28;20280;-67
2020/12/02 08:08:11;;;;;;;11.20;4.50;;;22.40;49.40;;;;;;5022229;28;20638;-67
2020/12/02 08:10:37;;;;;;;13.20;4.93;;;22.50;49.70;;;;;;5011558;28;20261;-67
2020/12/02 08:13:24;;;;;;;11.77;4.77;;;22.70;49.30;;;;;;5024522;28;20250;-68
2020/12/02 08:15:57;;;;;;;13.67;4.73;;;22.90;48.80;;;;;;5014239;28;20744;-66
2020/12/02 08:18:29;;;;;;;10.90;4.90;;;22.90;48.80;;;;;;5008384;28;20335;-66
2020/12/02 08:21:16;;;;;;;6.00;3.80;;;23.10;48.80;;;;;;4995657;28;20246;-67
2020/12/02 08:24:11;;;;;;;11.27;3.93;;;23.40;47.80;;;;;;5020792;28;20911;-65
2020/12/02 08:26:37;;;;;;;6.90;3.90;;;23.50;47.80;;;;;;5006920;28;20254;-68
2020/12/02 08:29:07;;;;;;;5.03;3.43;;;23.50;48.10;;;;;;5023595;28;20235;-67
2020/12/02 08:31:34;;;;;;;9.53;4.20;;;23.60;48.40;;;;;;5014522;28;20253;-64
2020/12/02 08:34:12;;;;;;;8.33;3.87;;;23.60;48.60;;;;;;5024010;28;20222;-64
2020/12/02 08:36:47;;;;;;;5.43;3.40;;;23.70;47.70;;;;;;5012499;28;22033;-64
2020/12/02 08:39:28;;;;;;;6.63;3.70;;;23.80;48.10;;;;;;5023682;28;20796;-66
2020/12/02 08:41:54;;;;;;;5.60;3.57;;;23.90;48.30;;;;;;5013095;28;20265;-65
2020/12/02 08:44:21;;;;;;;5.17;3.27;;;24.00;47.90;;;;;;5024495;28;20574;-64
2020/12/02 08:46:56;;;;;;;6.03;3.73;;;24.10;47.40;;;;;;5020085;28;20246;-65
2020/12/02 08:49:27;;;;;;;4.87;3.63;;;24.20;46.70;;;;;;5026327;28;20242;-64
2020/12/02 08:51:54;;;;;;;4.93;3.17;;;24.30;46.80;;;;;;5000452;28;20309;-64
2020/12/02 08:54:22;;;;;;;4.57;3.20;;;24.40;46.50;;;;;;5027137;28;20613;-67
2020/12/02 08:56:49;;;;;;;4.27;3.43;;;24.50;46.40;;;;;;5001332;28;20234;-65
2020/12/02 08:59:16;;;;;;;5.97;3.70;;;24.60;46.20;;;;;;5006555;28;20238;-66
2020/12/02 09:01:42;;;;;;;4.57;3.40;;;24.70;46.30;;;;;;4996574;28;20227;-65
2020/12/02 09:04:08;;;;;;;5.07;3.50;;;24.80;46.00;;;;;;5006377;28;20278;-66
2020/12/02 09:06:35;;;;;;;4.57;3.30;;;24.90;46.60;;;;;;4996282;28;20621;-67
2020/12/02 09:09:02;;;;;;;4.60;3.07;;;25.00;46.10;;;;;;5026293;28;20825;-64
2020/12/02 09:11:34;;;;;;;5.83;3.80;;;25.20;45.90;;;;;;5017975;28;20239;-65
2020/12/02 09:14:01;;;;;;;4.30;3.23;;;25.00;45.90;;;;;;5026939;28;20215;-65
2020/12/02 09:16:33;;;;;;;5.67;3.73;;;24.60;46.80;;;;;;5014519;28;20240;-65
2020/12/02 09:19:00;;;;;;;4.53;3.70;;;24.20;48.20;;;;;;5025743;28;20230;-64
2020/12/02 09:21:28;;;;;;;4.90;3.63;;;23.80;48.60;;;;;;5028285;28;20238;-65
2020/12/02 09:23:56;;;;;;;4.87;3.40;;;23.70;49.20;;;;;;5001981;28;20234;-67
2020/12/02 09:26:25;;;;;;;4.90;3.87;;;23.50;49.20;;;;;;5026948;28;20239;-68
2020/12/02 09:28:51;;;;;;;4.63;3.77;;;23.40;49.70;;;;;;5016333;28;20988;-66
2020/12/02 09:31:20;;;;;;;6.67;3.83;;;23.30;49.70;;;;;;5025833;28;20268;-66
2020/12/02 09:33:47;;;;;;;6.30;3.93;;;23.10;49.90;;;;;;5011417;28;20230;-65
2020/12/02 09:36:13;;;;;;;5.60;4.00;;;23.10;50.20;;;;;;5027941;28;21920;-66
2020/12/02 09:38:40;;;;;;;6.60;4.47;;;23.10;50.30;;;;;;5017010;28;20314;-64
2020/12/02 09:41:41;;;;;;;8.60;3.90;;;23.00;50.30;;;;;;5028030;28;20226;-66
2020/12/02 09:44:34;;;;;;;5.00;4.00;;;22.90;49.90;;;;;;5017114;28;20924;-63
2020/12/02 09:47:11;;;;;;;6.40;4.57;;;22.90;50.00;;;;;;5024200;28;20655;-65
2020/12/02 09:49:39;;;;;;;5.70;3.53;;;22.90;50.60;;;;;;5000039;28;20235;-64
2020/12/02 09:52:08;;;;;;;4.93;4.20;;;22.80;49.90;;;;;;5005982;28;20251;-66
2020/12/02 09:54:41;;;;;;;5.87;4.97;;;22.90;50.40;;;;;;4998199;28;20228;-61
2020/12/02 09:57:19;;;;;;;5.13;4.53;;;22.70;47.40;;;;;;5026993;28;22171;-61
2020/12/02 09:59:46;;;;;;;5.33;4.67;;;22.00;48.20;;;;;;5013060;28;20711;-61
2020/12/02 10:02:33;;;;;;;9.67;4.60;;;21.80;49.00;;;;;;5027565;28;20239;-68
2020/12/02 10:05:20;;;;;;;4.83;4.30;;;21.70;52.00;;;;;;5020212;28;20750;-65
2020/12/02 10:08:08;;;;;;;5.30;4.63;;;22.00;50.80;;;;;;5026103;28;20226;-64
2020/12/02 10:10:50;;;;;;;5.57;4.57;;;22.10;51.10;;;;;;5019738;28;20231;-64
2020/12/02 10:13:54;;;;;;;7.40;4.57;;;22.30;50.90;;;;;;5024348;28;20229;-66
2020/12/02 10:16:26;;;;;;;5.30;4.33;;;22.30;51.00;;;;;;5011459;28;20230;-65
2020/12/02 10:19:11;;;;;;;5.43;4.03;;;22.40;51.40;;;;;;5003040;28;20223;-68
2020/12/02 10:21:56;;;;;;;5.37;4.23;;;22.40;51.10;;;;;;5026744;28;20565;-65
2020/12/02 10:24:59;;;;;;;6.17;4.10;;;22.40;51.20;;;;;;5001983;28;20223;-65
2020/12/02 10:27:57;;;;;;;4.60;4.20;;;22.40;50.80;;;;;;5023910;28;20246;-67
2020/12/02 10:30:27;;;;;;;8.77;4.20;;;22.40;52.10;;;;;;5018032;28;20649;-68
2020/12/02 10:32:56;;;;;;;7.27;4.70;;;22.40;51.10;;;;;;5025613;28;20219;-66
2020/12/02 10:35:24;;;;;;;8.00;4.53;;;22.40;51.10;;;;;;5018068;28;20215;-68
2020/12/02 10:37:55;;;;;;;5.47;4.30;;;22.40;51.20;;;;;;5026098;28;20293;-67
2020/12/02 10:40:21;;;;;;;7.30;4.83;;;22.40;51.40;;;;;;5017521;28;20226;-68
2020/12/02 10:43:04;;;;;;;5.30;4.63;;;22.40;51.20;;;;;;5025235;28;20272;-66
2020/12/02 10:45:30;;;;;;;7.57;5.13;;;22.40;51.50;;;;;;5016692;28;20234;-68
2020/12/02 10:48:16;;;;;;;6.10;4.77;;;22.40;51.10;;;;;;5026888;28;20235;-67
2020/12/02 10:50:43;;;;;;;8.00;4.43;;;22.40;51.50;;;;;;5018241;28;20281;-66
2020/12/02 10:53:13;;;;;;;5.53;4.60;;;22.40;51.50;;;;;;5026526;28;20231;-66
2020/12/02 10:55:40;;;;;;;5.23;4.63;;;22.30;51.10;;;;;;5017064;28;20803;-67
2020/12/02 10:58:25;;;;;;;8.20;4.70;;;22.40;51.30;;;;;;5027505;28;20223;-66
2020/12/02 11:00:55;;;;;;;6.60;4.83;;;22.40;51.40;;;;;;5017084;28;22248;-66
2020/12/02 11:03:40;;;;;;;5.43;4.23;;;22.30;51.30;;;;;;5023633;28;20802;-64
2020/12/02 11:06:10;;;;;;;5.40;4.60;;;22.40;51.20;;;;;;5017356;28;20702;-65
2020/12/02 11:08:50;;;;;;;6.13;4.73;;;22.30;51.10;;;;;;5022825;28;20741;-66
2020/12/02 11:11:30;;;;;;;7.27;5.20;;;22.30;51.20;;;;;;5018755;28;20230;-65
2020/12/02 11:14:31;;;;;;;6.73;4.93;;;22.40;51.20;;;;;;5026496;28;20229;-66
2020/12/02 11:17:13;;;;;;;4.90;4.40;;;22.30;51.20;;;;;;5014389;28;20412;-67
2020/12/02 11:19:45;;;;;;;10.63;5.27;;;22.30;50.10;;;;;;5025594;28;20226;-67
2020/12/02 11:22:48;;;;;;;4.97;4.50;;;22.20;50.00;;;;;;5013502;28;20258;-67
2020/12/02 11:25:33;;;;;;;5.60;5.00;;;22.20;49.80;;;;;;5023972;28;20633;-65
2020/12/02 11:27:59;;;;;;;6.97;4.87;;;22.10;49.70;;;;;;5017050;28;20471;-67
2020/12/02 11:30:32;;;;;;;5.83;5.10;;;22.00;49.50;;;;;;5023869;28;20289;-66
2020/12/02 11:33:27;;;;;;;5.77;5.17;;;22.00;49.60;;;;;;5013729;28;20222;-66
2020/12/02 11:36:20;;;;;;;5.53;4.90;;;22.00;49.70;;;;;;5023557;28;20585;-67
2020/12/02 11:38:58;;;;;;;5.20;4.70;;;21.90;49.70;;;;;;5016280;28;20223;-66
2020/12/02 11:41:46;;;;;;;5.90;5.30;;;21.90;49.60;;;;;;5024995;28;21095;-66
2020/12/02 11:44:34;;;;;;;6.33;5.70;;;21.80;49.50;;;;;;5016272;28;20912;-67
2020/12/02 11:47:30;;;;;;;5.87;5.27;;;21.80;49.50;;;;;;5006849;28;20235;-71
2020/12/02 11:50:01;;;;;;;7.47;5.40;;;21.70;50.00;;;;;;5014689;28;20239;-65
2020/12/02 11:53:00;;;;;;;5.70;5.10;;;21.80;50.50;;;;;;5026010;28;20223;-65
2020/12/02 11:55:32;;;;;;;6.33;5.73;;;21.90;50.50;;;;;;5014293;28;20222;-66
2020/12/02 11:58:00;;;;;;;7.23;5.33;;;21.80;50.50;;;;;;5024789;28;20230;-65
2020/12/02 12:00:26;;;;;;;5.93;5.33;;;21.90;50.70;;;;;;5001568;28;20220;-66
2020/12/02 12:03:17;;;;;;;6.33;5.73;;;21.90;50.80;;;;;;5003213;28;20227;-64
2020/12/02 12:06:06;;;;;;;6.30;5.60;;;21.90;50.90;;;;;;5004663;28;20358;-66
2020/12/02 12:09:14;;;;;;;8.17;6.07;;;21.90;51.50;;;;;;5014522;28;22001;-65
2020/12/02 12:11:40;;;;;;;6.97;6.27;;;21.90;51.90;;;;;;4923034;29;20245;-67
2020/12/02 12:14:10;;;;;;;6.47;5.80;;;21.90;51.60;;;;;;4998566;28;20733;-68
2020/12/02 12:16:40;;;;;;;6.83;6.00;;;21.90;51.30;;;;;;5025688;28;20231;-66
2020/12/02 12:19:20;;;;;;;7.37;6.47;;;21.90;51.40;;;;;;5003824;28;20739;-65
2020/12/02 12:22:05;;;;;;;6.83;5.83;;;22.00;51.60;;;;;;5001612;28;20768;-66
2020/12/02 12:24:31;;;;;;;7.13;6.43;;;21.90;51.40;;;;;;5015660;28;20231;-63
2020/12/02 12:26:58;;;;;;;6.73;6.03;;;21.90;51.40;;;;;;5016974;28;20227;-65
2020/12/02 12:29:25;;;;;;;5.97;5.37;;;21.90;51.30;;;;;;4996469;28;27225;-63
2020/12/02 12:32:12;;;;;;;6.87;6.20;;;22.00;51.60;;;;;;5010303;28;20219;-64
2020/12/02 12:34:46;;;;;;;9.57;5.73;;;22.00;52.10;;;;;;5015740;28;20230;-66
2020/12/02 12:37:23;;;;;;;6.90;6.03;;;22.00;51.90;;;;;;5024161;28;20835;-65
2020/12/02 12:40:00;;;;;;;6.57;5.97;;;22.00;51.70;;;;;;5013834;28;20343;-65
2020/12/02 12:42:28;;;;;;;6.37;5.77;;;22.00;51.60;;;;;;5022527;28;21079;-67
2020/12/02 12:45:00;;;;;;;7.03;6.33;;;22.00;51.30;;;;;;5024527;28;20779;-67
2020/12/02 12:47:33;;;;;;;6.97;6.23;;;22.00;51.10;;;;;;5020535;28;21674;-66
2020/12/02 12:50:02;;;;;;;6.93;5.83;;;22.00;51.00;;;;;;5020598;28;20611;-65
2020/12/02 12:52:32;;;;;;;7.10;6.40;;;22.00;50.90;;;;;;5001345;28;20814;-59
2020/12/02 12:54:59;;;;;;;7.57;6.87;;;21.90;48.60;;;;;;5020811;28;20230;-58
2020/12/02 12:57:27;;;;;;;8.37;7.23;;;21.40;49.00;;;;;;5016204;28;20226;-59
2020/12/02 12:59:56;;;;;;;7.20;6.47;;;21.30;49.30;;;;;;5023817;28;20938;-58
2020/12/02 13:02:29;;;;;;;8.03;7.10;;;21.10;49.70;;;;;;5015367;28;20231;-59
2020/12/02 13:04:56;;;;;;;7.83;7.00;;;21.10;49.90;;;;;;5024349;28;20243;-68
2020/12/02 13:07:32;;;;;;;8.50;7.47;;;21.10;52.40;;;;;;5013121;28;20916;-71
2020/12/02 13:10:09;;;;;;;7.53;6.73;;;21.30;52.80;;;;;;5023701;28;20249;-66
2020/12/02 13:13:02;;;;;;;8.50;6.93;;;21.40;51.70;;;;;;5016359;28;20227;-64
2020/12/02 13:15:49;;;;;;;8.20;7.10;;;21.60;52.00;;;;;;5024496;28;20249;-60
2020/12/02 13:18:49;;;;;;;7.63;6.93;;;21.70;52.20;;;;;;5016855;28;20589;-64
2020/12/02 13:21:29;;;;;;;6.73;6.03;;;21.70;52.10;;;;;;5019174;28;21023;-63